createdAt,value
2017-12-20T00:00:37.803Z,101848.29
2017-12-20T00:03:07.065Z,101845.33
2017-12-20T00:05:36.255Z,101845.86
2017-12-20T00:08:05.527Z,101840.37
2017-12-20T00:10:34.706Z,101833.32
2017-12-20T00:13:05.357Z,101834.91
2017-12-20T00:15:37.483Z,101830.47
2017-12-20T00:18:06.697Z,101842.48
2017-12-20T00:20:35.879Z,101840.46
2017-12-20T00:23:05.078Z,101834.12
2017-12-20T00:25:34.283Z,101834.52
2017-12-20T00:28:03.499Z,101831.33
2017-12-20T00:30:32.745Z,101822.03
2017-12-20T00:33:01.956Z,101828.50
2017-12-20T00:35:31.146Z,101829.37
2017-12-20T00:38:00.359Z,101829.11
2017-12-20T00:40:29.808Z,101832.22
2017-12-20T00:42:59.907Z,101830.20
2017-12-20T00:45:29.127Z,101834.39
2017-12-20T00:47:59.088Z,101824.88
2017-12-20T00:50:28.316Z,101830.28
2017-12-20T00:52:57.492Z,101828.52
2017-12-20T00:55:26.801Z,101837.09
2017-12-20T00:57:55.983Z,101836.73
2017-12-20T01:00:25.198Z,101836.75
2017-12-20T01:02:54.503Z,101830.13
2017-12-20T01:05:23.661Z,101834.54
2017-12-20T01:07:52.861Z,101824.88
2017-12-20T01:10:22.051Z,101834.73
2017-12-20T01:12:51.270Z,101845.68
2017-12-20T01:15:20.436Z,101837.50
2017-12-20T01:17:49.647Z,101845.33
2017-12-20T01:20:18.860Z,101843.31
2017-12-20T01:22:48.051Z,101836.00
2017-12-20T01:25:17.266Z,101847.08
2017-12-20T01:27:46.465Z,101837.98
2017-12-20T01:30:15.692Z,101843.55
2017-12-20T01:32:45.807Z,101841.13
2017-12-20T01:35:14.966Z,101847.75
2017-12-20T01:37:44.180Z,101839.72
2017-12-20T01:40:13.439Z,101838.30
2017-12-20T01:42:42.634Z,101841.45
2017-12-20T01:45:11.883Z,101842.94
2017-12-20T01:47:41.058Z,101839.30
2017-12-20T01:50:10.254Z,101834.84
2017-12-20T01:52:39.551Z,101840.52
2017-12-20T01:55:08.754Z,101829.65
2017-12-20T01:57:37.947Z,101833.30
2017-12-20T02:00:07.188Z,101833.16
2017-12-20T02:02:36.379Z,101829.50
2017-12-20T02:05:06.351Z,101823.86
2017-12-20T02:07:35.560Z,101824.45
2017-12-20T02:10:04.740Z,101820.39
2017-12-20T02:12:33.956Z,101827.16
2017-12-20T02:15:03.165Z,101813.31
2017-12-20T02:17:32.387Z,101815.95
2017-12-20T02:20:02.340Z,101809.63
2017-12-20T02:22:31.520Z,101811.91
2017-12-20T02:25:00.695Z,101811.30
2017-12-20T02:27:30.775Z,101808.59
2017-12-20T02:29:59.972Z,101809.27
2017-12-20T02:32:29.155Z,101808.20
2017-12-20T02:34:58.375Z,101810.63
2017-12-20T02:37:27.564Z,101811.48
2017-12-20T02:39:56.834Z,101810.02
2017-12-20T02:42:26.031Z,101811.77
2017-12-20T02:44:55.243Z,101820.02
2017-12-20T02:47:24.428Z,101815.43
2017-12-20T02:49:53.718Z,101819.38
2017-12-20T02:52:22.894Z,101814.13
2017-12-20T02:54:53.299Z,101815.48
2017-12-20T02:57:22.490Z,101814.45
2017-12-20T02:59:51.677Z,101817.30
2017-12-20T03:02:20.939Z,101815.28
2017-12-20T03:04:50.114Z,101813.52
2017-12-20T03:07:20.303Z,101815.23
2017-12-20T03:09:49.488Z,101816.04
2017-12-20T03:12:18.687Z,101811.22
2017-12-20T03:14:47.863Z,101820.95
2017-12-20T03:17:17.915Z,101813.93
2017-12-20T03:19:47.099Z,101815.41
2017-12-20T03:22:16.324Z,101801.91
2017-12-20T03:24:46.278Z,101801.59
2017-12-20T03:27:15.544Z,101801.31
2017-12-20T03:29:44.680Z,101791.45
2017-12-20T03:32:14.718Z,101791.05
2017-12-20T03:34:43.923Z,101787.80
2017-12-20T03:37:13.143Z,101789.91
2017-12-20T03:39:43.192Z,101788.80
2017-12-20T03:42:12.379Z,101794.35
2017-12-20T03:44:41.589Z,101795.17
2017-12-20T03:47:10.835Z,101800.97
2017-12-20T03:49:40.072Z,101796.11
2017-12-20T03:52:09.259Z,101795.83
2017-12-20T03:54:39.497Z,101807.31
2017-12-20T03:57:08.675Z,101798.14
2017-12-20T03:59:38.654Z,101810.56
2017-12-20T04:02:07.846Z,101810.69
2017-12-20T04:04:37.214Z,101817.63
2017-12-20T04:07:06.439Z,101815.48
2017-12-20T04:09:35.645Z,101816.98
2017-12-20T04:12:04.851Z,101814.59
2017-12-20T04:14:34.063Z,101818.91
2017-12-20T04:17:04.049Z,101818.51
2017-12-20T04:19:33.259Z,101821.20
2017-12-20T04:22:02.514Z,101819.73
2017-12-20T04:24:31.716Z,101810.27
2017-12-20T04:27:00.951Z,101812.49
2017-12-20T04:29:30.188Z,101815.73
2017-12-20T04:32:00.187Z,101809.52
2017-12-20T04:34:29.399Z,101809.39
2017-12-20T04:36:58.836Z,101810.63
2017-12-20T04:39:28.058Z,101814.03
2017-12-20T04:41:57.244Z,101809.81
2017-12-20T04:44:26.447Z,101807.92
2017-12-20T04:46:55.778Z,101818.09
2017-12-20T04:49:25.895Z,101821.77
2017-12-20T04:51:56.053Z,101821.35
2017-12-20T04:54:25.299Z,101821.48
2017-12-20T04:56:54.508Z,101824.09
2017-12-20T04:59:24.506Z,101818.16
2017-12-20T05:01:54.007Z,101824.50
2017-12-20T05:04:23.205Z,101820.86
2017-12-20T05:06:52.412Z,101825.88
2017-12-20T05:09:21.608Z,101821.82
2017-12-20T05:11:51.119Z,101825.98
2017-12-20T05:14:20.320Z,101824.09
2017-12-20T05:16:49.518Z,101820.28
2017-12-20T05:19:19.502Z,101819.46
2017-12-20T05:21:48.735Z,101823.80
2017-12-20T05:24:17.911Z,101823.16
2017-12-20T05:26:47.103Z,101822.34
2017-12-20T05:29:16.311Z,101819.19
2017-12-20T05:31:45.503Z,101816.08
2017-12-20T05:34:14.712Z,101809.85
2017-12-20T05:36:44.061Z,101807.82
2017-12-20T05:39:13.364Z,101807.11
2017-12-20T05:41:42.557Z,101797.92
2017-12-20T05:44:11.742Z,101795.49
2017-12-20T05:46:40.955Z,101794.81
2017-12-20T05:49:10.163Z,101795.87
2017-12-20T05:51:39.350Z,101795.56
2017-12-20T05:54:08.556Z,101800.14
2017-12-20T05:56:37.806Z,101805.81
2017-12-20T05:59:07.891Z,101808.34
2017-12-20T06:01:37.114Z,101811.58
2017-12-20T06:04:07.094Z,101813.06
2017-12-20T06:06:36.322Z,101809.83
2017-12-20T06:09:06.294Z,101813.34
2017-12-20T06:11:35.501Z,101812.52
2017-12-20T06:14:04.702Z,101819.32
2017-12-20T06:16:33.886Z,101823.13
2017-12-20T06:19:03.090Z,101818.17
2017-12-20T06:21:32.311Z,101820.88
2017-12-20T06:24:01.519Z,101823.57
2017-12-20T06:26:30.794Z,101823.73
2017-12-20T06:29:00.004Z,101828.90
2017-12-20T06:31:29.202Z,101831.61
2017-12-20T06:33:58.407Z,101827.57
2017-12-20T06:36:27.615Z,101828.04
2017-12-20T06:38:56.822Z,101829.39
2017-12-20T06:41:26.790Z,101833.16
2017-12-20T06:43:56.007Z,101831.66
2017-12-20T06:46:25.344Z,101834.77
2017-12-20T06:48:55.320Z,101833.17
2017-12-20T06:51:24.524Z,101835.59
2017-12-20T06:53:53.724Z,101841.08
2017-12-20T06:56:22.934Z,101845.95
2017-12-20T06:58:52.131Z,101843.24
2017-12-20T07:01:22.199Z,101841.75
2017-12-20T07:03:51.389Z,101839.32
2017-12-20T07:06:20.604Z,101844.50
2017-12-20T07:08:49.973Z,101845.58
2017-12-20T07:11:19.168Z,101850.45
2017-12-20T07:13:48.391Z,101860.18
2017-12-20T07:16:17.602Z,101853.08
2017-12-20T07:18:46.825Z,101855.52
2017-12-20T07:21:16.024Z,101858.07
2017-12-20T07:23:45.235Z,101858.03
2017-12-20T07:26:15.208Z,101864.42
2017-12-20T07:28:44.496Z,101870.78
2017-12-20T07:31:13.788Z,101860.56
2017-12-20T07:33:43.037Z,101864.63
2017-12-20T07:36:12.282Z,101864.50
2017-12-20T07:38:41.499Z,101870.32
2017-12-20T07:41:10.698Z,101878.95
2017-12-20T07:43:39.974Z,101867.61
2017-12-20T07:46:09.167Z,101876.92
2017-12-20T07:48:38.395Z,101876.47
2017-12-20T07:51:07.618Z,101873.77
2017-12-20T07:53:36.834Z,101875.16
2017-12-20T07:56:06.811Z,101879.91
2017-12-20T07:58:36.012Z,101877.34
2017-12-20T08:01:05.213Z,101877.87
2017-12-20T08:03:34.419Z,101873.73
2017-12-20T08:06:03.630Z,101880.23
2017-12-20T08:08:32.859Z,101870.36
2017-12-20T08:11:02.013Z,101870.49
2017-12-20T08:13:31.207Z,101870.22
2017-12-20T08:16:00.410Z,101874.14
2017-12-20T08:18:29.659Z,101878.61
2017-12-20T08:20:58.887Z,101882.41
2017-12-20T08:23:28.083Z,101888.80
2017-12-20T08:25:57.286Z,101891.37
2017-12-20T08:28:27.176Z,101900.58
2017-12-20T08:30:56.391Z,101905.17
2017-12-20T08:33:25.604Z,101903.82
2017-12-20T08:35:54.767Z,101907.34
2017-12-20T08:38:23.969Z,101911.03
2017-12-20T08:40:53.159Z,101916.56
2017-12-20T08:43:22.382Z,101909.00
2017-12-20T08:45:51.654Z,101914.47
2017-12-20T08:48:20.865Z,101918.66
2017-12-20T08:50:50.072Z,101927.45
2017-12-20T08:53:19.291Z,101927.33
2017-12-20T08:55:49.256Z,101930.16
2017-12-20T08:58:18.479Z,101927.45
2017-12-20T09:00:47.682Z,101924.61
2017-12-20T09:03:16.891Z,101929.34
2017-12-20T09:05:46.151Z,101929.27
2017-12-20T09:08:15.367Z,101938.48
2017-12-20T09:10:44.568Z,101937.40
2017-12-20T09:13:13.824Z,101936.76
2017-12-20T09:15:43.038Z,101947.45
2017-12-20T09:18:12.318Z,101951.77
2017-12-20T09:20:41.518Z,101960.30
2017-12-20T09:23:10.753Z,101959.67
2017-12-20T09:25:39.931Z,101963.20
2017-12-20T09:28:09.150Z,101964.16
2017-12-20T09:30:38.350Z,101953.33
2017-12-20T09:33:07.545Z,101958.38
2017-12-20T09:35:36.730Z,101954.38
2017-12-20T09:38:06.034Z,101956.95
2017-12-20T09:40:35.214Z,101953.34
2017-12-20T09:43:04.422Z,101958.62
2017-12-20T09:45:33.649Z,101955.23
2017-12-20T09:48:02.834Z,101950.23
2017-12-20T09:50:32.047Z,101948.21
2017-12-20T09:53:01.236Z,101959.89
2017-12-20T09:55:30.450Z,101955.20
2017-12-20T09:57:59.664Z,101952.70
2017-12-20T10:00:29.648Z,101950.41
2017-12-20T10:02:58.880Z,101956.59
2017-12-20T10:05:28.074Z,101959.08
2017-12-20T10:07:58.056Z,101958.58
2017-12-20T10:10:27.339Z,101953.13
2017-12-20T10:12:56.552Z,101948.66
2017-12-20T10:15:25.770Z,101946.49
2017-12-20T10:17:55.750Z,101948.39
2017-12-20T10:20:24.955Z,101950.81
2017-12-20T10:22:56.780Z,101960.98
2017-12-20T10:25:25.984Z,101945.59
2017-12-20T10:27:55.193Z,101949.34
2017-12-20T10:30:24.492Z,101949.60
2017-12-20T10:32:53.687Z,101948.66
2017-12-20T10:35:22.876Z,101945.28
2017-12-20T10:37:52.155Z,101938.37
2017-12-20T10:40:21.392Z,101946.94
2017-12-20T10:42:50.596Z,101938.37
2017-12-20T10:45:19.822Z,101948.39
2017-12-20T10:47:49.789Z,101947.08
2017-12-20T10:50:19.016Z,101949.33
2017-12-20T10:52:49.647Z,101943.41
2017-12-20T10:55:18.853Z,101944.80
2017-12-20T10:57:48.071Z,101941.55
2017-12-20T11:00:18.037Z,101942.67
2017-12-20T11:02:47.245Z,101943.45
2017-12-20T11:05:16.578Z,101942.91
2017-12-20T11:07:46.592Z,101940.06
2017-12-20T11:10:16.581Z,101941.05
2017-12-20T11:12:45.802Z,101936.31
2017-12-20T11:15:15.804Z,101930.45
2017-12-20T11:17:44.996Z,101928.19
2017-12-20T11:20:14.190Z,101933.60
2017-12-20T11:22:43.367Z,101935.53
2017-12-20T11:25:12.580Z,101936.48
2017-12-20T11:27:41.798Z,101939.05
2017-12-20T11:30:11.796Z,101936.52
2017-12-20T11:32:41.002Z,101937.06
2017-12-20T11:35:10.487Z,101941.77
2017-12-20T11:37:39.714Z,101938.34
2017-12-20T11:40:08.923Z,101933.06
2017-12-20T11:42:38.959Z,101937.94
2017-12-20T11:45:08.107Z,101931.67
2017-12-20T11:47:37.321Z,101926.13
2017-12-20T11:50:06.516Z,101925.31
2017-12-20T11:52:36.602Z,101922.47
2017-12-20T11:55:05.786Z,101925.62
2017-12-20T11:57:35.054Z,101926.02
2017-12-20T12:00:04.324Z,101923.59
2017-12-20T12:02:33.646Z,101926.59
2017-12-20T12:05:02.819Z,101926.05
2017-12-20T12:07:32.057Z,101919.28
2017-12-20T12:10:01.282Z,101912.78
2017-12-20T12:12:30.475Z,101913.97
2017-12-20T12:14:59.694Z,101901.11
2017-12-20T12:17:28.888Z,101903.52
2017-12-20T12:19:58.131Z,101896.23
2017-12-20T12:22:28.075Z,101897.73
2017-12-20T12:24:57.286Z,101898.94
2017-12-20T12:27:26.552Z,101898.27
2017-12-20T12:29:55.760Z,101896.80
2017-12-20T12:32:24.951Z,101894.61
2017-12-20T12:34:54.291Z,101890.04
2017-12-20T12:37:23.479Z,101890.84
2017-12-20T12:39:52.693Z,101897.75
2017-12-20T12:42:21.896Z,101893.42
2017-12-20T12:44:51.098Z,101903.17
2017-12-20T12:47:20.361Z,101908.72
2017-12-20T12:49:49.630Z,101899.11
2017-12-20T12:52:19.626Z,101894.77
2017-12-20T12:54:49.643Z,101890.55
2017-12-20T12:57:19.627Z,101887.98
2017-12-20T12:59:48.840Z,101890.00
2017-12-20T13:02:18.067Z,101896.64
2017-12-20T13:04:47.283Z,101895.15
2017-12-20T13:07:16.502Z,101888.52
2017-12-20T13:09:45.711Z,101891.63
2017-12-20T13:12:14.906Z,101896.38
2017-12-20T13:14:44.107Z,101898.41
2017-12-20T13:17:13.334Z,101891.63
2017-12-20T13:19:43.319Z,101890.04
2017-12-20T13:22:12.561Z,101886.11
2017-12-20T13:24:42.566Z,101890.20
2017-12-20T13:27:12.583Z,101885.30
2017-12-20T13:29:41.824Z,101880.16
2017-12-20T13:32:11.046Z,101891.02
2017-12-20T13:34:40.302Z,101895.89
2017-12-20T13:37:09.519Z,101897.11
2017-12-20T13:39:38.769Z,101901.14
2017-12-20T13:42:08.040Z,101903.44
2017-12-20T13:44:37.219Z,101903.41
2017-12-20T13:47:06.424Z,101903.03
2017-12-20T13:49:35.647Z,101906.45
2017-12-20T13:52:04.867Z,101904.25
2017-12-20T13:54:34.866Z,101906.72
2017-12-20T13:57:04.070Z,101911.97
2017-12-20T13:59:33.286Z,101918.37
2017-12-20T14:02:02.553Z,101914.03
2017-12-20T14:04:31.782Z,101912.14
2017-12-20T14:07:01.003Z,101918.77
2017-12-20T14:09:30.279Z,101928.16
2017-12-20T14:12:00.234Z,101932.72
2017-12-20T14:14:29.484Z,101938.55
2017-12-20T14:16:58.661Z,101932.59
2017-12-20T14:19:27.846Z,101936.25
2017-12-20T14:21:57.072Z,101931.23
2017-12-20T14:24:26.259Z,101931.09
2017-12-20T14:26:55.466Z,101931.64
2017-12-20T14:29:25.424Z,101927.44
2017-12-20T14:31:54.632Z,101921.89
2017-12-20T14:34:23.884Z,101921.45
2017-12-20T14:36:53.219Z,101917.93
2017-12-20T14:39:22.461Z,101927.28
2017-12-20T14:41:52.471Z,101921.22
2017-12-20T14:44:21.799Z,101913.09
2017-12-20T14:46:51.793Z,101918.77
2017-12-20T14:49:20.990Z,101915.80
2017-12-20T14:51:50.198Z,101912.98
2017-12-20T14:54:20.288Z,101904.17
2017-12-20T14:56:49.463Z,101901.47
2017-12-20T14:59:18.700Z,101907.72
2017-12-20T15:01:47.911Z,101918.18
2017-12-20T15:04:17.932Z,101921.95
2017-12-20T15:06:47.151Z,101922.89
2017-12-20T15:09:16.419Z,101933.19
2017-12-20T15:11:45.699Z,101929.94
2017-12-20T15:14:14.942Z,101931.59
2017-12-20T15:16:44.171Z,101942.16
2017-12-20T15:19:13.390Z,101952.42
2017-12-20T15:21:43.362Z,101954.70
2017-12-20T15:24:12.613Z,101946.33
2017-12-20T15:26:41.827Z,101951.58
2017-12-20T15:29:11.816Z,101944.56
2017-12-20T15:31:41.009Z,101943.35
2017-12-20T15:34:10.208Z,101943.08
2017-12-20T15:36:39.408Z,101940.10
2017-12-20T15:39:08.839Z,101930.48
2017-12-20T15:41:38.799Z,101927.91
2017-12-20T15:44:08.035Z,101934.68
2017-12-20T15:46:37.223Z,101927.50
2017-12-20T15:49:06.420Z,101927.36
2017-12-20T15:51:35.647Z,101929.67
2017-12-20T15:54:05.603Z,101920.70
2017-12-20T15:56:34.807Z,101913.12
2017-12-20T15:59:04.015Z,101921.65
2017-12-20T16:01:33.242Z,101925.44
2017-12-20T16:04:02.429Z,101910.38
2017-12-20T16:06:31.650Z,101918.91
2017-12-20T16:09:01.619Z,101911.33
2017-12-20T16:11:30.871Z,101921.63
2017-12-20T16:14:00.092Z,101937.20
2017-12-20T16:16:29.319Z,101960.31
2017-12-20T16:18:58.651Z,101958.96
2017-12-20T16:21:28.616Z,101959.20
2017-12-20T16:23:57.926Z,101976.12
2017-12-20T16:26:27.243Z,101988.03
2017-12-20T16:28:56.455Z,101992.91
2017-12-20T16:31:25.745Z,101982.63
2017-12-20T16:33:54.976Z,101985.73
2017-12-20T16:36:24.926Z,101994.40
2017-12-20T16:38:54.141Z,101991.92
2017-12-20T16:41:23.357Z,101992.36
2017-12-20T16:43:52.816Z,101994.81
2017-12-20T16:46:22.036Z,101988.88
2017-12-20T16:48:51.224Z,101993.48
2017-12-20T16:51:20.451Z,101997.96
2017-12-20T16:53:49.684Z,101988.62
2017-12-20T16:56:18.910Z,101978.47
2017-12-20T16:58:48.132Z,101982.69
2017-12-20T17:01:17.363Z,101986.05
2017-12-20T17:03:47.338Z,101979.27
2017-12-20T17:06:16.586Z,101968.95
2017-12-20T17:08:46.577Z,101969.89
2017-12-20T17:11:15.799Z,101969.76
2017-12-20T17:13:45.772Z,101969.21
2017-12-20T17:16:14.968Z,101982.89
2017-12-20T17:18:44.182Z,101971.79
2017-12-20T17:21:13.445Z,101967.62
2017-12-20T17:23:43.379Z,101962.30
2017-12-20T17:26:12.615Z,101964.75
2017-12-20T17:28:42.617Z,101972.73
2017-12-20T17:31:11.835Z,101974.49
2017-12-20T17:33:41.852Z,101974.62
2017-12-20T17:36:11.863Z,101977.20
2017-12-20T17:38:41.873Z,101972.09
2017-12-20T17:41:11.101Z,101958.28
2017-12-20T17:43:40.314Z,101960.86
2017-12-20T17:46:09.527Z,101959.53
2017-12-20T17:48:38.758Z,101963.19
2017-12-20T17:51:08.002Z,101966.68
2017-12-20T17:53:37.267Z,101969.80
2017-12-20T17:56:07.252Z,101969.26
2017-12-20T17:58:36.494Z,101967.09
2017-12-20T18:01:05.703Z,101962.72
2017-12-20T18:03:34.890Z,101967.49
2017-12-20T18:06:04.109Z,101975.62
2017-12-20T18:08:33.303Z,101983.64
2017-12-20T18:11:02.516Z,101987.41
2017-12-20T18:13:31.732Z,101985.54
2017-12-20T18:16:00.972Z,101981.20
2017-12-20T18:18:30.200Z,101988.20
2017-12-20T18:20:59.424Z,101989.30
2017-12-20T18:23:28.634Z,101991.15
2017-12-20T18:25:57.856Z,101992.10
2017-12-20T18:28:27.844Z,102001.84
2017-12-20T18:30:57.079Z,102006.89
2017-12-20T18:33:26.288Z,102011.91
2017-12-20T18:35:55.494Z,102015.97
2017-12-20T18:38:24.802Z,102023.83
2017-12-20T18:40:54.029Z,102030.50
2017-12-20T18:43:23.247Z,102024.41
2017-12-20T18:45:53.269Z,102023.47
2017-12-20T18:48:22.490Z,102031.86
2017-12-20T18:50:51.699Z,102035.33
2017-12-20T18:53:20.970Z,102042.06
2017-12-20T18:55:50.937Z,102037.33
2017-12-20T18:58:20.174Z,102037.77
2017-12-20T19:00:49.367Z,102031.95
2017-12-20T19:03:19.378Z,102037.50
2017-12-20T19:05:48.620Z,102034.08
2017-12-20T19:08:17.842Z,102030.59
2017-12-20T19:10:47.055Z,102037.50
2017-12-20T19:13:16.300Z,102028.70
2017-12-20T19:15:45.570Z,102028.33
2017-12-20T19:18:14.815Z,102025.63
2017-12-20T19:20:44.047Z,102035.11
2017-12-20T19:23:14.082Z,102027.39
2017-12-20T19:25:44.070Z,102020.48
2017-12-20T19:28:13.302Z,102016.02
2017-12-20T19:30:42.586Z,102022.52
2017-12-20T19:33:11.864Z,102017.77
2017-12-20T19:35:41.142Z,102018.00
2017-12-20T19:38:10.526Z,102017.46
2017-12-20T19:40:39.815Z,102020.71
2017-12-20T19:43:09.268Z,102024.09
2017-12-20T19:45:38.611Z,102007.71
2017-12-20T19:48:08.769Z,102014.35
2017-12-20T19:50:38.092Z,102017.63
2017-12-20T19:53:07.553Z,102009.37
2017-12-20T19:55:37.888Z,102018.27
2017-12-20T19:58:07.335Z,102013.44
2017-12-20T20:00:36.715Z,102003.24
2017-12-20T20:03:06.108Z,102000.40
2017-12-20T20:05:35.519Z,101991.23
2017-12-20T20:08:05.112Z,101995.30
2017-12-20T20:10:34.536Z,101996.82
2017-12-20T20:13:04.064Z,102009.42
2017-12-20T20:15:34.474Z,102018.35
2017-12-20T20:18:03.965Z,102026.22
2017-12-20T20:20:33.740Z,102026.89
2017-12-20T20:23:03.190Z,102033.08
2017-12-20T20:25:32.742Z,102029.42
2017-12-20T20:28:02.989Z,102029.24
2017-12-20T20:30:32.692Z,102021.66
2017-12-20T20:33:02.297Z,102025.36
2017-12-20T20:35:31.938Z,102003.69
2017-12-20T20:38:01.415Z,101990.99
2017-12-20T20:40:31.003Z,102017.00
2017-12-20T20:43:00.507Z,102022.32
2017-12-20T20:45:30.180Z,102019.17
2017-12-20T20:48:00.661Z,102007.75
2017-12-20T20:50:30.241Z,102001.52
2017-12-20T20:53:00.451Z,101987.16
2017-12-20T20:55:30.135Z,101983.78
2017-12-20T20:57:59.690Z,101995.94
2017-12-20T21:00:29.178Z,101991.87
2017-12-20T21:02:58.837Z,101995.52
2017-12-20T21:05:28.279Z,102014.79
2017-12-20T21:07:58.561Z,102020.48
2017-12-20T21:10:27.879Z,102025.23
2017-12-20T21:12:57.202Z,102019.94
2017-12-20T21:15:26.476Z,102017.77
2017-12-20T21:17:55.704Z,101994.75
2017-12-20T21:20:25.749Z,101993.16
2017-12-20T21:22:54.954Z,102010.77
2017-12-20T21:25:24.236Z,102017.13
2017-12-20T21:27:53.576Z,102011.98
2017-12-20T21:30:22.835Z,102003.42
2017-12-20T21:32:52.071Z,101991.33
2017-12-20T21:35:21.300Z,101990.14
2017-12-20T21:37:51.332Z,101981.30
2017-12-20T21:40:20.472Z,101983.47
2017-12-20T21:42:49.722Z,101985.41
2017-12-20T21:45:19.691Z,101985.67
2017-12-20T21:47:48.931Z,101987.70
2017-12-20T21:50:18.951Z,101984.77
2017-12-20T21:52:48.187Z,101984.90
2017-12-20T21:55:17.399Z,101983.38
2017-12-20T21:57:46.639Z,101986.25
2017-12-20T22:00:16.710Z,101988.28
2017-12-20T22:02:45.896Z,101987.47
2017-12-20T22:05:15.167Z,101983.72
2017-12-20T22:07:44.395Z,101987.88
2017-12-20T22:10:13.599Z,101988.19
2017-12-20T22:12:42.827Z,101992.35
2017-12-20T22:15:12.842Z,101988.59
2017-12-20T22:17:42.124Z,101990.63
2017-12-20T22:20:11.492Z,101994.92
2017-12-20T22:22:41.587Z,101985.75
2017-12-20T22:25:11.611Z,101984.26
2017-12-20T22:27:40.781Z,101997.39
2017-12-20T22:30:10.011Z,102007.42
2017-12-20T22:32:39.246Z,102010.54
2017-12-20T22:35:08.441Z,102005.69
2017-12-20T22:37:37.651Z,102002.45
2017-12-20T22:40:06.912Z,102015.45
2017-12-20T22:42:36.180Z,102008.58
2017-12-20T22:45:06.371Z,102006.52
2017-12-20T22:47:35.632Z,102007.87
2017-12-20T22:50:05.115Z,101993.23
2017-12-20T22:52:34.351Z,101995.41
2017-12-20T22:55:03.624Z,101983.51
2017-12-20T22:57:33.626Z,101980.53
2017-12-20T23:00:02.858Z,101983.51
2017-12-20T23:02:32.054Z,101986.63
2017-12-20T23:05:01.367Z,101987.84
2017-12-20T23:07:30.608Z,101987.47
2017-12-20T23:09:59.865Z,101984.48
2017-12-20T23:12:29.188Z,101980.55
2017-12-20T23:14:58.387Z,101983.13
2017-12-20T23:17:27.709Z,101985.70
2017-12-20T23:19:57.702Z,101994.66
2017-12-20T23:22:26.921Z,101995.70
2017-12-20T23:24:57.080Z,101999.91
2017-12-20T23:27:26.291Z,102000.31
2017-12-20T23:29:55.499Z,101993.94
2017-12-20T23:32:24.705Z,101989.74
2017-12-20T23:34:53.941Z,101992.86
2017-12-20T23:37:23.943Z,101996.48
2017-12-20T23:39:53.947Z,101992.18
2017-12-20T23:42:23.187Z,101991.36
2017-12-20T23:44:52.398Z,101989.20
2017-12-20T23:47:21.592Z,101989.33
2017-12-20T23:49:50.814Z,101988.93
2017-12-20T23:52:20.182Z,101987.30
2017-12-20T23:54:49.435Z,101991.53
2017-12-20T23:57:18.622Z,101986.92
2017-12-20T23:59:47.845Z,101983.13
